createdAt,value
2023-03-16T00:02:23.088Z,33.10
2023-03-16T00:05:10.449Z,32.58
2023-03-16T00:07:49.810Z,28.42
2023-03-16T00:10:37.751Z,28.65
2023-03-16T00:13:20.766Z,35.42
2023-03-16T00:15:58.996Z,26.67
2023-03-16T00:18:33.424Z,31.50
2023-03-16T00:21:06.615Z,33.53
2023-03-16T00:23:39.898Z,33.65
2023-03-16T00:26:10.184Z,32.05
2023-03-16T00:28:40.035Z,30.08
2023-03-16T00:31:12.114Z,27.63
2023-03-16T00:33:45.166Z,24.67
2023-03-16T00:36:14.741Z,23.13
2023-03-16T00:38:48.507Z,22.08
2023-03-16T00:41:19.874Z,30.60
2023-03-16T00:43:49.008Z,35.63
2023-03-16T00:46:17.752Z,23.58
2023-03-16T00:48:52.822Z,23.05
2023-03-16T00:51:24.036Z,23.45
2023-03-16T00:53:53.073Z,22.45
2023-03-16T00:56:22.219Z,21.77
2023-03-16T00:58:57.933Z,21.05
2023-03-16T01:01:27.540Z,20.45
2023-03-16T01:03:57.418Z,23.95
2023-03-16T01:06:26.095Z,23.08
2023-03-16T01:08:54.749Z,28.77
2023-03-16T01:11:23.824Z,27.55
2023-03-16T01:13:54.391Z,19.65
2023-03-16T01:16:28.168Z,18.70
2023-03-16T01:18:58.947Z,21.77
2023-03-16T01:21:27.871Z,23.33
2023-03-16T01:23:56.165Z,21.30
2023-03-16T01:26:25.375Z,30.02
2023-03-16T01:28:55.138Z,22.08
2023-03-16T01:31:24.303Z,33.05
2023-03-16T01:33:52.946Z,47.92
2023-03-16T01:36:24.444Z,43.53
2023-03-16T01:39:00.431Z,44.10
2023-03-16T01:41:33.862Z,37.53
2023-03-16T01:44:18.726Z,50.50
2023-03-16T01:46:46.816Z,32.83
2023-03-16T01:49:24.078Z,29.50
2023-03-16T01:52:19.722Z,38.65
2023-03-16T01:54:58.178Z,31.42
2023-03-16T01:57:32.512Z,29.92
2023-03-16T02:00:19.193Z,31.35
2023-03-16T02:03:16.676Z,32.38
2023-03-16T02:06:08.610Z,42.33
2023-03-16T02:08:40.516Z,32.88
2023-03-16T02:11:09.962Z,45.60
2023-03-16T02:13:50.706Z,52.47
2023-03-16T02:16:22.694Z,64.93
2023-03-16T02:18:51.777Z,55.53
2023-03-16T02:21:33.419Z,44.83
2023-03-16T02:24:03.957Z,43.17
2023-03-16T02:26:59.636Z,55.72
2023-03-16T02:30:00.549Z,38.53
2023-03-16T02:32:33.842Z,34.70
2023-03-16T02:35:04.258Z,33.20
2023-03-16T02:37:35.860Z,42.75
2023-03-16T02:40:17.621Z,38.95
2023-03-16T02:42:47.398Z,31.58
2023-03-16T02:45:15.917Z,32.58
2023-03-16T02:47:44.821Z,33.58
2023-03-16T02:50:13.988Z,33.28
2023-03-16T02:52:42.908Z,40.22
2023-03-16T02:55:11.531Z,39.17
2023-03-16T02:57:41.180Z,40.58
2023-03-16T03:00:18.948Z,36.70
2023-03-16T03:02:52.678Z,39.20
2023-03-16T03:05:22.109Z,34.95
2023-03-16T03:07:52.351Z,33.70
2023-03-16T03:10:20.392Z,35.55
2023-03-16T03:12:51.003Z,28.25
2023-03-16T03:15:19.223Z,29.75
2023-03-16T03:17:58.791Z,74.38
2023-03-16T03:20:30.740Z,24.50
2023-03-16T03:23:03.997Z,26.45
2023-03-16T03:25:35.056Z,30.83
2023-03-16T03:28:05.804Z,49.95
2023-03-16T03:30:37.194Z,48.45
2023-03-16T03:33:09.355Z,39.97
2023-03-16T03:35:37.617Z,34.05
2023-03-16T03:38:08.182Z,31.00
2023-03-16T03:40:38.673Z,28.40
2023-03-16T03:43:07.555Z,27.70
2023-03-16T03:45:40.125Z,23.27
2023-03-16T03:48:09.501Z,23.15
2023-03-16T03:50:40.649Z,27.35
2023-03-16T03:53:32.070Z,23.15
2023-03-16T03:56:39.048Z,22.52
2023-03-16T03:59:15.476Z,30.85
2023-03-16T04:02:13.614Z,26.42
2023-03-16T04:04:58.830Z,21.70
2023-03-16T04:07:29.487Z,31.88
2023-03-16T04:10:05.738Z,37.08
2023-03-16T04:12:39.009Z,45.10
2023-03-16T04:15:12.924Z,44.40
2023-03-16T04:18:00.065Z,49.17
2023-03-16T04:20:31.232Z,39.35
2023-03-16T04:23:00.287Z,38.72
2023-03-16T04:25:32.139Z,50.38
2023-03-16T04:28:02.726Z,38.65
2023-03-16T04:30:35.575Z,35.28
2023-03-16T04:33:17.131Z,38.10
2023-03-16T04:35:49.998Z,39.60
2023-03-16T04:38:26.071Z,39.83
2023-03-16T04:41:01.840Z,50.67
2023-03-16T04:43:37.310Z,57.47
2023-03-16T04:46:19.112Z,38.33
2023-03-16T04:48:48.740Z,37.83
2023-03-16T04:51:19.623Z,33.88
2023-03-16T04:54:10.735Z,36.30
2023-03-16T04:56:42.984Z,45.88
2023-03-16T04:59:20.052Z,40.42
2023-03-16T05:02:01.845Z,49.00
2023-03-16T05:04:30.184Z,49.00
2023-03-16T05:07:00.233Z,66.25
2023-03-16T05:09:33.810Z,46.58
2023-03-16T05:12:02.563Z,41.40
2023-03-16T05:14:32.305Z,40.47
2023-03-16T05:17:14.962Z,40.58
2023-03-16T05:19:45.588Z,43.60
2023-03-16T05:22:15.927Z,65.40
2023-03-16T05:25:04.813Z,65.10
2023-03-16T05:27:35.213Z,41.78
2023-03-16T05:30:05.415Z,41.13
2023-03-16T05:32:35.519Z,40.97
2023-03-16T05:35:04.077Z,40.35
2023-03-16T05:37:32.678Z,24.52
2023-03-16T05:40:01.658Z,36.40
2023-03-16T05:42:30.643Z,22.63
2023-03-16T05:45:02.886Z,43.03
2023-03-16T05:47:37.394Z,28.13
2023-03-16T05:50:11.353Z,25.17
2023-03-16T05:52:44.708Z,36.43
2023-03-16T05:57:53.515Z,41.80
2023-03-16T06:00:22.889Z,41.05
2023-03-16T06:03:01.628Z,29.05
2023-03-16T06:05:34.282Z,34.95
2023-03-16T06:08:04.446Z,26.15
2023-03-16T06:10:33.509Z,18.92
2023-03-16T06:13:02.198Z,33.42
2023-03-16T06:15:31.112Z,39.95
2023-03-16T06:18:02.754Z,34.65
2023-03-16T06:20:31.262Z,18.60
2023-03-16T06:22:59.634Z,19.67
2023-03-16T06:25:28.197Z,17.15
2023-03-16T06:27:57.440Z,16.85
2023-03-16T06:30:27.441Z,16.75
2023-03-16T06:32:56.038Z,16.83
2023-03-16T06:35:25.336Z,24.50
2023-03-16T06:38:07.970Z,39.75
2023-03-16T06:40:57.253Z,41.20
2023-03-16T06:43:29.044Z,49.28
2023-03-16T06:45:59.775Z,24.88
2023-03-16T06:48:29.078Z,107.55
2023-03-16T06:51:04.078Z,36.58
2023-03-16T06:53:32.802Z,87.03
2023-03-16T06:56:02.356Z,20.60
2023-03-16T06:58:34.347Z,29.95
2023-03-16T07:01:05.042Z,46.72
2023-03-16T07:03:34.512Z,25.95
2023-03-16T07:06:10.643Z,77.68
2023-03-16T07:08:39.557Z,22.23
2023-03-16T07:11:08.234Z,21.42
2023-03-16T07:13:37.730Z,24.08
2023-03-16T07:16:07.137Z,24.23
2023-03-16T07:18:38.361Z,41.53
2023-03-16T07:21:09.710Z,30.42
2023-03-16T07:23:39.382Z,24.10
2023-03-16T07:26:12.162Z,19.20
2023-03-16T07:28:50.300Z,26.40
2023-03-16T07:31:18.407Z,27.02
2023-03-16T07:33:48.573Z,51.88
2023-03-16T07:36:25.293Z,59.10
2023-03-16T07:38:58.406Z,32.95
2023-03-16T07:41:26.498Z,32.50
2023-03-16T07:43:58.429Z,32.40
2023-03-16T07:46:27.298Z,27.65
2023-03-16T07:48:55.950Z,18.30
2023-03-16T07:51:24.153Z,38.22
2023-03-16T07:53:54.040Z,23.45
2023-03-16T07:56:33.728Z,16.60
2023-03-16T07:59:08.904Z,38.42
2023-03-16T08:01:38.522Z,37.78
2023-03-16T08:04:07.769Z,21.33
2023-03-16T08:06:36.055Z,18.77
2023-03-16T08:09:05.864Z,17.95
2023-03-16T08:11:37.786Z,14.93
2023-03-16T08:14:07.611Z,15.05
2023-03-16T08:16:57.724Z,12.50
2023-03-16T08:19:28.676Z,17.23
2023-03-16T08:22:06.270Z,14.07
2023-03-16T08:24:42.823Z,20.40
2023-03-16T08:27:13.416Z,15.98
2023-03-16T08:29:46.700Z,14.15
2023-03-16T08:32:22.034Z,16.90
2023-03-16T08:34:50.521Z,18.15
2023-03-16T08:37:19.446Z,16.00
2023-03-16T08:39:51.534Z,23.55
2023-03-16T08:42:21.100Z,15.43
2023-03-16T08:45:01.324Z,13.20
2023-03-16T08:47:32.849Z,16.23
2023-03-16T08:50:01.911Z,18.50
2023-03-16T08:52:30.088Z,22.40
2023-03-16T08:55:03.348Z,12.55
2023-03-16T08:57:33.856Z,17.50
2023-03-16T09:00:08.939Z,13.45
2023-03-16T09:02:38.822Z,19.38
2023-03-16T09:05:12.091Z,18.33
2023-03-16T09:07:40.625Z,19.00
2023-03-16T09:10:11.897Z,30.83
2023-03-16T09:12:41.139Z,15.38
2023-03-16T09:15:12.263Z,22.40
2023-03-16T09:17:41.822Z,15.70
2023-03-16T09:20:21.796Z,16.55
2023-03-16T09:22:51.198Z,17.50
2023-03-16T09:25:20.088Z,25.30
2023-03-16T09:27:48.498Z,18.50
2023-03-16T09:30:18.280Z,13.13
2023-03-16T09:32:48.959Z,26.25
2023-03-16T09:35:19.599Z,11.68
2023-03-16T09:38:05.170Z,19.48
2023-03-16T09:40:36.147Z,18.33
2023-03-16T09:43:10.877Z,16.98
2023-03-16T09:45:42.501Z,11.90
2023-03-16T09:48:12.097Z,14.30
2023-03-16T09:50:48.728Z,12.23
2023-03-16T09:53:48.010Z,12.70
2023-03-16T09:56:26.907Z,14.73
2023-03-16T09:58:56.175Z,20.70
2023-03-16T10:01:34.683Z,14.48
2023-03-16T10:04:05.618Z,12.63
2023-03-16T10:06:44.442Z,15.88
2023-03-16T10:09:36.176Z,13.55
2023-03-16T10:12:07.244Z,11.73
2023-03-16T10:15:11.861Z,9.43
2023-03-16T10:17:52.662Z,34.22
2023-03-16T10:20:23.169Z,16.10
2023-03-16T10:22:54.596Z,18.75
2023-03-16T10:25:43.105Z,18.80
2023-03-16T10:28:21.948Z,10.82
2023-03-16T10:30:52.649Z,28.00
2023-03-16T10:33:27.931Z,9.98
2023-03-16T10:36:05.796Z,12.20
2023-03-16T10:38:40.467Z,12.27
2023-03-16T10:41:21.536Z,12.15
2023-03-16T10:43:53.469Z,32.50
2023-03-16T10:46:22.637Z,15.00
2023-03-16T10:49:02.112Z,19.38
2023-03-16T10:51:33.945Z,12.65
2023-03-16T10:54:16.102Z,11.60
2023-03-16T10:56:44.199Z,16.17
2023-03-16T10:59:27.877Z,18.52
2023-03-16T11:01:56.325Z,14.07
2023-03-16T11:04:25.713Z,15.13
2023-03-16T11:06:56.052Z,17.02
2023-03-16T11:09:33.628Z,13.65
2023-03-16T11:12:21.719Z,15.35
2023-03-16T11:14:50.492Z,13.18
2023-03-16T11:17:38.247Z,15.27
2023-03-16T11:20:14.907Z,12.00
2023-03-16T11:22:48.568Z,12.07
2023-03-16T11:25:42.290Z,12.52
2023-03-16T11:28:28.208Z,15.68
2023-03-16T11:31:03.258Z,10.82
2023-03-16T11:33:34.951Z,21.30
2023-03-16T11:36:49.782Z,21.33
2023-03-16T11:39:35.798Z,6.60
2023-03-16T11:42:16.024Z,13.63
2023-03-16T11:44:57.531Z,10.85
2023-03-16T11:47:58.080Z,130.73
2023-03-16T11:50:35.683Z,13.02
2023-03-16T11:53:28.610Z,9.15
2023-03-16T11:56:18.442Z,26.00
2023-03-16T11:59:13.941Z,25.02
2023-03-16T12:02:07.341Z,13.45
2023-03-16T12:04:42.465Z,14.77
2023-03-16T12:07:20.517Z,15.80
2023-03-16T12:10:05.993Z,18.88
2023-03-16T12:12:37.871Z,14.82
2023-03-16T12:15:24.395Z,8.25
2023-03-16T12:17:55.685Z,10.88
2023-03-16T12:20:29.491Z,11.57
2023-03-16T12:23:13.291Z,9.98
2023-03-16T12:25:46.194Z,11.63
2023-03-16T12:28:25.616Z,9.30
2023-03-16T12:30:59.254Z,12.30
2023-03-16T12:33:48.776Z,6.93
2023-03-16T12:36:49.929Z,8.27
2023-03-16T12:39:22.059Z,11.48
2023-03-16T12:42:02.972Z,8.23
2023-03-16T12:44:36.880Z,7.03
2023-03-16T12:47:08.414Z,8.27
2023-03-16T12:49:37.265Z,7.82
2023-03-16T12:52:11.116Z,8.80
2023-03-16T12:54:55.656Z,7.38
2023-03-16T12:57:27.313Z,5.22
2023-03-16T12:59:59.207Z,4.57
2023-03-16T13:02:39.375Z,6.93
2023-03-16T13:05:32.625Z,6.75
2023-03-16T13:08:07.078Z,3.83
2023-03-16T13:10:35.817Z,8.35
2023-03-16T13:13:13.176Z,5.90
2023-03-16T13:15:47.598Z,5.30
2023-03-16T13:18:17.649Z,7.95
2023-03-16T13:20:49.143Z,6.85
2023-03-16T13:23:18.441Z,9.25
2023-03-16T13:25:59.585Z,4.40
2023-03-16T13:28:39.415Z,8.07
2023-03-16T13:31:21.233Z,10.95
2023-03-16T13:33:53.469Z,12.00
2023-03-16T13:36:22.979Z,5.57
2023-03-16T13:39:05.456Z,6.68
2023-03-16T13:41:34.428Z,8.38
2023-03-16T13:44:05.308Z,9.60
2023-03-16T13:46:33.238Z,9.00
2023-03-16T13:49:02.289Z,6.55
2023-03-16T13:51:34.144Z,7.65
2023-03-16T13:54:21.787Z,9.18
2023-03-16T13:56:51.032Z,8.07
2023-03-16T13:59:21.701Z,7.18
2023-03-16T14:01:50.049Z,8.13
2023-03-16T14:04:20.222Z,14.05
2023-03-16T14:07:04.280Z,17.90
2023-03-16T14:09:34.997Z,14.93
2023-03-16T14:12:04.358Z,14.55
2023-03-16T14:14:39.421Z,7.45
2023-03-16T14:17:16.202Z,25.48
2023-03-16T14:19:51.018Z,10.30
2023-03-16T14:22:31.044Z,18.88
2023-03-16T14:25:01.005Z,16.15
2023-03-16T14:27:40.067Z,7.93
2023-03-16T14:30:15.302Z,11.68
2023-03-16T14:33:04.735Z,8.48
2023-03-16T14:35:41.482Z,9.43
2023-03-16T14:38:32.071Z,16.67
2023-03-16T14:41:20.594Z,12.25
2023-03-16T14:43:51.753Z,21.17
2023-03-16T14:46:29.716Z,15.30
2023-03-16T14:49:08.797Z,19.85
2023-03-16T14:51:40.822Z,17.35
2023-03-16T14:54:13.414Z,9.10
2023-03-16T14:56:42.586Z,14.77
2023-03-16T14:59:11.400Z,11.55
2023-03-16T15:01:40.227Z,19.67
2023-03-16T15:04:08.799Z,98.18
2023-03-16T15:06:41.338Z,29.45
2023-03-16T15:09:37.299Z,16.17
2023-03-16T15:12:14.135Z,14.82
2023-03-16T15:15:03.026Z,11.38
2023-03-16T15:17:33.142Z,7.68
2023-03-16T15:20:01.673Z,12.57
2023-03-16T15:22:37.509Z,20.08
2023-03-16T15:25:19.641Z,19.10
2023-03-16T15:27:48.689Z,16.45
2023-03-16T15:30:27.076Z,12.75
2023-03-16T15:32:56.139Z,9.30
2023-03-16T15:35:24.564Z,13.77
2023-03-16T15:37:53.785Z,10.65
2023-03-16T15:40:29.562Z,10.63
2023-03-16T15:42:58.493Z,292.02
2023-03-16T15:45:27.285Z,266.58
2023-03-16T15:47:55.992Z,112.50
2023-03-16T15:50:24.965Z,71.45
2023-03-16T15:52:57.229Z,23.38
2023-03-16T15:55:35.450Z,12.50
2023-03-16T15:58:07.107Z,18.40
2023-03-16T16:00:37.556Z,273.45
2023-03-16T16:03:06.831Z,105.75
2023-03-16T16:05:36.450Z,307.25
2023-03-16T16:08:05.026Z,333.15
2023-03-16T16:10:34.844Z,489.77
2023-03-16T16:13:03.768Z,408.17
2023-03-16T16:15:37.676Z,272.27
2023-03-16T16:18:24.063Z,81.80
2023-03-16T16:20:52.371Z,135.68
2023-03-16T16:23:21.136Z,120.95
2023-03-16T16:25:53.789Z,130.38
2023-03-16T16:28:26.736Z,132.32
2023-03-16T16:30:54.884Z,104.65
2023-03-16T16:33:24.943Z,44.38
2023-03-16T16:36:02.160Z,24.25
2023-03-16T16:38:32.487Z,73.43
2023-03-16T16:41:09.307Z,96.85
2023-03-16T16:43:46.902Z,106.40
2023-03-16T16:46:21.228Z,132.13
2023-03-16T16:48:51.315Z,69.90
2023-03-16T16:51:24.771Z,149.98
2023-03-16T16:53:56.318Z,96.10
2023-03-16T16:56:28.582Z,85.07
2023-03-16T16:58:58.210Z,64.57
2023-03-16T17:01:35.401Z,52.40
2023-03-16T17:04:07.036Z,66.13
2023-03-16T17:06:35.586Z,68.35
2023-03-16T17:09:05.437Z,54.30
2023-03-16T17:11:33.749Z,56.50
2023-03-16T17:31:18.797Z,48.63
2023-03-16T17:33:47.632Z,79.28
2023-03-16T17:36:16.703Z,73.32
2023-03-16T17:38:45.391Z,65.22
2023-03-16T17:41:23.618Z,64.40
2023-03-16T17:43:57.027Z,45.33
2023-03-16T17:46:29.684Z,49.08
2023-03-16T17:49:00.682Z,56.17
2023-03-16T17:51:32.391Z,38.13
2023-03-16T17:54:01.537Z,54.05
2023-03-16T17:56:32.273Z,69.35
2023-03-16T17:59:05.516Z,70.22
2023-03-16T18:01:39.224Z,68.22
2023-03-16T18:04:16.357Z,69.07
2023-03-16T18:06:47.132Z,92.65
2023-03-16T18:09:20.032Z,94.82
2023-03-16T18:11:50.382Z,97.82
2023-03-16T18:14:36.758Z,54.67
2023-03-16T18:17:14.605Z,102.43
2023-03-16T18:19:45.630Z,89.65
2023-03-16T18:22:21.257Z,230.25
2023-03-16T18:24:52.177Z,238.60
2023-03-16T18:27:23.378Z,227.40
2023-03-16T18:29:51.936Z,221.80
2023-03-16T18:32:27.394Z,254.23
2023-03-16T18:34:57.372Z,239.60
2023-03-16T18:37:30.108Z,225.70
2023-03-16T18:39:58.901Z,264.70
2023-03-16T18:42:28.442Z,244.77
2023-03-16T18:44:58.412Z,458.85
2023-03-16T18:50:51.751Z,468.17
2023-03-16T18:53:22.562Z,476.23
2023-03-16T18:55:51.940Z,349.15
2023-03-16T18:58:22.866Z,283.63
2023-03-16T19:00:56.888Z,276.45
2023-03-16T19:03:28.396Z,262.98
2023-03-16T19:05:58.716Z,233.15
2023-03-16T19:08:29.381Z,172.75
2023-03-16T19:11:01.867Z,152.15
2023-03-16T19:13:30.523Z,155.00
2023-03-16T19:16:01.965Z,119.60
2023-03-16T19:18:42.278Z,107.25
2023-03-16T19:21:23.253Z,116.25
2023-03-16T19:24:01.260Z,133.65
2023-03-16T19:26:33.143Z,143.48
2023-03-16T19:29:02.588Z,210.50
2023-03-16T19:34:18.792Z,230.23
2023-03-16T19:36:49.520Z,218.85
2023-03-16T19:39:18.412Z,266.45
2023-03-16T19:41:56.002Z,271.50
2023-03-16T19:44:33.285Z,259.63
2023-03-16T19:47:04.692Z,432.73
2023-03-16T19:49:33.181Z,320.92
2023-03-16T19:52:11.001Z,348.23
2023-03-16T19:54:42.507Z,286.17
2023-03-16T19:57:15.517Z,284.10
2023-03-16T19:59:46.894Z,291.40
2023-03-16T20:02:28.840Z,275.70
2023-03-16T20:04:57.081Z,309.92
2023-03-16T20:07:25.776Z,352.00
2023-03-16T20:09:53.987Z,294.73
2023-03-16T20:12:26.186Z,262.83
2023-03-16T20:14:56.557Z,216.60
2023-03-16T20:17:30.380Z,206.55
2023-03-16T20:19:58.774Z,294.10
2023-03-16T20:22:29.440Z,319.13
2023-03-16T20:24:58.232Z,265.35
2023-03-16T20:27:28.267Z,222.32
2023-03-16T20:29:57.769Z,234.15
2023-03-16T20:32:33.381Z,198.80
2023-03-16T20:35:01.760Z,203.43
2023-03-16T20:37:30.908Z,163.10
2023-03-16T20:39:59.770Z,199.25
2023-03-16T20:42:33.947Z,274.95
2023-03-16T20:45:02.509Z,230.50
2023-03-16T20:47:30.795Z,238.90
2023-03-16T20:50:00.117Z,304.10
2023-03-16T20:52:30.958Z,277.77
2023-03-16T20:54:59.334Z,203.75
2023-03-16T20:57:30.503Z,216.48
2023-03-16T21:00:00.936Z,245.18
2023-03-16T21:02:34.126Z,278.30
2023-03-16T21:05:04.420Z,353.20
2023-03-16T21:07:34.037Z,372.00
2023-03-16T21:10:02.182Z,217.95
2023-03-16T21:12:33.643Z,221.95
2023-03-16T21:15:02.817Z,269.58
2023-03-16T21:17:39.145Z,259.27
2023-03-16T21:20:19.249Z,265.95
2023-03-16T21:22:47.896Z,292.80
2023-03-16T21:25:24.043Z,281.55
2023-03-16T21:27:55.524Z,367.83
2023-03-16T21:30:32.058Z,275.00
2023-03-16T21:33:02.011Z,231.55
2023-03-16T21:35:33.823Z,192.75
2023-03-16T21:38:14.019Z,186.43
2023-03-16T21:40:42.529Z,172.10
2023-03-16T21:43:12.034Z,147.13
2023-03-16T21:45:41.307Z,178.75
2023-03-16T21:48:25.024Z,202.68
2023-03-16T21:50:54.559Z,236.90
2023-03-16T21:53:29.407Z,611.45
2023-03-16T21:55:58.796Z,318.58
2023-03-16T21:58:27.434Z,219.15
2023-03-16T22:00:56.246Z,149.90
2023-03-16T22:03:29.544Z,148.30
2023-03-16T22:06:01.738Z,523.20
2023-03-16T22:08:33.443Z,582.35
2023-03-16T22:11:02.297Z,672.35
2023-03-16T22:13:33.716Z,653.50
2023-03-16T22:16:02.384Z,637.58
2023-03-16T22:18:31.017Z,659.55
2023-03-16T22:21:00.941Z,841.47
2023-03-16T22:23:30.924Z,629.83
2023-03-16T22:25:59.761Z,513.33
2023-03-16T22:28:29.164Z,399.55
2023-03-16T22:30:58.255Z,340.33
2023-03-16T22:33:29.938Z,280.65
2023-03-16T22:36:08.419Z,399.23
2023-03-16T22:38:37.596Z,506.45
2023-03-16T22:41:06.344Z,448.35
2023-03-16T22:43:36.953Z,380.67
2023-03-16T22:46:05.400Z,329.70
2023-03-16T22:48:35.001Z,379.85
2023-03-16T22:51:04.984Z,451.92
2023-03-16T22:53:33.796Z,416.63
2023-03-16T22:56:02.321Z,238.75
2023-03-16T22:58:34.898Z,281.60
2023-03-16T23:01:17.247Z,276.95
2023-03-16T23:03:47.816Z,269.85
2023-03-16T23:06:18.242Z,284.88
2023-03-16T23:08:47.820Z,321.77
2023-03-16T23:11:26.113Z,332.05
2023-03-16T23:13:55.657Z,217.70
2023-03-16T23:16:27.064Z,202.82
2023-03-16T23:18:57.048Z,218.43
2023-03-16T23:21:26.435Z,195.82
2023-03-16T23:24:03.513Z,184.15
2023-03-16T23:26:32.995Z,168.23
2023-03-16T23:29:01.734Z,156.70
2023-03-16T23:31:30.224Z,199.77
2023-03-16T23:34:00.124Z,202.70
2023-03-16T23:36:28.342Z,275.63
2023-03-16T23:38:57.189Z,209.07
2023-03-16T23:41:26.409Z,177.32
2023-03-16T23:43:55.394Z,185.75
2023-03-16T23:46:24.880Z,169.80
2023-03-16T23:48:56.113Z,168.13
2023-03-16T23:51:31.110Z,228.90
2023-03-16T23:53:59.933Z,196.00
2023-03-16T23:56:28.218Z,192.90
2023-03-16T23:58:56.545Z,148.88
